createdAt,value
2023-03-28T00:02:48.169Z,39.80
2023-03-28T00:07:53.783Z,39.80
2023-03-28T00:12:57.051Z,40.10
2023-03-28T00:18:01.765Z,40.00
2023-03-28T00:23:06.471Z,40.00
2023-03-28T00:28:10.165Z,40.00
2023-03-28T00:33:13.489Z,39.80
2023-03-28T00:38:20.869Z,39.70
2023-03-28T00:43:44.059Z,40.00
2023-03-28T00:48:52.443Z,40.10
2023-03-28T00:54:00.120Z,39.80
2023-03-28T00:59:06.734Z,39.70
2023-03-28T01:04:10.387Z,39.50
2023-03-28T01:09:17.784Z,39.50
2023-03-28T01:14:24.655Z,39.70
2023-03-28T01:19:42.902Z,39.80
2023-03-28T01:25:23.299Z,40.10
2023-03-28T01:31:03.354Z,40.30
2023-03-28T01:36:57.162Z,40.40
2023-03-28T01:42:10.393Z,40.50
2023-03-28T01:47:18.723Z,40.20
2023-03-28T01:52:30.578Z,40.30
2023-03-28T01:57:39.451Z,40.30
2023-03-28T02:02:49.255Z,40.20
2023-03-28T02:07:55.290Z,40.10
2023-03-28T02:13:01.049Z,40.20
2023-03-28T02:18:10.226Z,40.00
2023-03-28T02:23:19.474Z,40.10
2023-03-28T02:28:24.126Z,40.20
2023-03-28T02:33:39.381Z,40.00
2023-03-28T02:38:53.782Z,40.70
2023-03-28T02:44:13.676Z,40.50
2023-03-28T02:49:49.435Z,40.70
2023-03-28T02:55:01.455Z,41.00
2023-03-28T03:00:12.157Z,40.90
2023-03-28T03:05:15.290Z,40.60
2023-03-28T03:10:22.026Z,40.40
2023-03-28T03:15:25.981Z,40.60
2023-03-28T03:20:34.140Z,40.50
2023-03-28T03:25:39.041Z,40.40
2023-03-28T03:30:42.163Z,40.40
2023-03-28T03:35:45.973Z,40.30
2023-03-28T03:40:50.529Z,40.20
2023-03-28T03:45:53.625Z,40.20
2023-03-28T03:50:56.765Z,40.10
2023-03-28T03:56:03.693Z,40.10
2023-03-28T04:01:09.892Z,40.20
2023-03-28T04:06:13.024Z,40.10
2023-03-28T04:11:17.446Z,40.00
2023-03-28T04:16:20.934Z,40.10
2023-03-28T04:21:27.652Z,40.70
2023-03-28T04:26:38.057Z,40.00
2023-03-28T04:31:41.466Z,40.00
2023-03-28T04:36:45.012Z,39.90
2023-03-28T04:41:49.525Z,39.90
2023-03-28T04:46:52.763Z,40.00
2023-03-28T04:51:55.876Z,40.10
2023-03-28T04:57:00.440Z,40.00
2023-03-28T05:02:03.671Z,40.20
2023-03-28T05:07:07.185Z,40.10
2023-03-28T05:12:11.851Z,40.10
2023-03-28T05:17:15.017Z,40.30
2023-03-28T05:22:18.077Z,40.10
2023-03-28T05:27:22.654Z,40.10
2023-03-28T05:32:28.209Z,40.60
2023-03-28T05:37:31.702Z,40.20
2023-03-28T05:42:36.931Z,40.10
2023-03-28T05:47:40.652Z,40.10
2023-03-28T05:52:44.060Z,40.10
2023-03-28T05:57:48.514Z,40.10
2023-03-28T06:02:51.767Z,40.20
2023-03-28T06:07:55.095Z,40.10
2023-03-28T06:12:59.603Z,40.10
2023-03-28T06:18:03.077Z,40.30
2023-03-28T06:23:06.931Z,40.30
2023-03-28T06:28:11.747Z,40.30
2023-03-28T06:33:15.257Z,40.50
2023-03-28T06:38:18.476Z,40.50
2023-03-28T06:43:23.119Z,40.70
2023-03-28T06:48:32.618Z,40.60
2023-03-28T06:53:37.364Z,40.50
2023-03-28T06:58:41.849Z,40.50
2023-03-28T07:03:45.072Z,40.70
2023-03-28T07:08:48.306Z,40.50
2023-03-28T07:13:53.469Z,40.50
2023-03-28T07:18:59.194Z,40.50
2023-03-28T07:24:02.346Z,40.50
2023-03-28T07:29:06.948Z,40.40
2023-03-28T07:34:10.170Z,40.20
2023-03-28T07:39:13.508Z,40.30
2023-03-28T07:44:18.141Z,40.50
2023-03-28T07:49:21.540Z,40.60
2023-03-28T07:54:24.704Z,40.40
2023-03-28T07:59:29.211Z,40.40
2023-03-28T08:04:32.488Z,40.20
2023-03-28T08:09:35.888Z,40.00
2023-03-28T08:14:40.345Z,40.30
2023-03-28T08:19:44.332Z,39.90
2023-03-28T08:24:49.850Z,39.80
2023-03-28T08:29:54.387Z,39.10
2023-03-28T08:34:57.980Z,39.30
2023-03-28T08:40:01.682Z,39.20
2023-03-28T08:45:20.410Z,39.30
2023-03-28T08:50:29.772Z,37.50
2023-03-28T08:55:37.822Z,38.40
2023-03-28T09:00:42.549Z,38.30
2023-03-28T09:05:49.887Z,36.40
2023-03-28T09:10:59.447Z,37.30
2023-03-28T09:16:21.374Z,36.70
2023-03-28T09:21:33.456Z,37.20
2023-03-28T09:26:38.676Z,36.80
2023-03-28T09:31:48.638Z,36.90
2023-03-28T09:36:55.744Z,35.40
2023-03-28T09:42:06.370Z,36.40
2023-03-28T09:47:13.507Z,36.00
2023-03-28T09:52:18.660Z,35.40
2023-03-28T09:57:21.946Z,36.30
2023-03-28T10:02:29.986Z,36.00
2023-03-28T10:07:42.626Z,35.20
2023-03-28T10:12:49.008Z,33.80
2023-03-28T10:17:53.633Z,35.00
2023-03-28T10:22:57.865Z,34.40
2023-03-28T10:28:02.231Z,35.00
2023-03-28T10:33:23.903Z,34.60
2023-03-28T10:38:32.339Z,32.90
2023-03-28T10:43:38.284Z,33.90
2023-03-28T10:48:47.316Z,33.40
2023-03-28T10:54:13.182Z,33.30
2023-03-28T10:59:25.323Z,32.00
2023-03-28T11:04:43.815Z,33.10
2023-03-28T11:09:53.208Z,30.70
2023-03-28T11:15:08.497Z,32.20
2023-03-28T11:20:38.490Z,31.80
2023-03-28T11:25:50.887Z,30.90
2023-03-28T11:30:58.083Z,31.30
2023-03-28T11:36:08.163Z,31.10
2023-03-28T11:41:14.513Z,31.50
2023-03-28T11:46:23.772Z,32.40
2023-03-28T11:51:33.677Z,32.10
2023-03-28T11:56:46.729Z,31.60
2023-03-28T12:01:56.098Z,30.10
2023-03-28T12:07:11.373Z,30.50
2023-03-28T12:12:18.451Z,30.80
2023-03-28T12:17:24.366Z,32.20
2023-03-28T12:22:35.594Z,30.60
2023-03-28T12:27:51.096Z,29.70
2023-03-28T12:33:01.538Z,30.20
2023-03-28T12:38:15.447Z,29.30
2023-03-28T12:43:22.474Z,29.30
2023-03-28T12:48:33.692Z,29.40
2023-03-28T12:53:45.297Z,28.50
2023-03-28T12:58:48.998Z,28.20
2023-03-28T13:04:02.571Z,29.90
2023-03-28T13:09:32.320Z,27.40
2023-03-28T13:14:38.055Z,28.70
2023-03-28T13:19:52.609Z,28.70
2023-03-28T13:25:21.170Z,28.70
2023-03-28T13:30:27.312Z,28.70
2023-03-28T13:35:47.932Z,28.90
2023-03-28T13:40:55.910Z,28.40
2023-03-28T13:46:04.591Z,28.90
2023-03-28T13:51:10.613Z,28.40
2023-03-28T13:56:25.079Z,28.40
2023-03-28T14:01:35.639Z,26.50
2023-03-28T14:06:42.309Z,27.50
2023-03-28T14:11:47.671Z,28.20
2023-03-28T14:16:51.466Z,28.40
2023-03-28T14:21:55.387Z,29.10
2023-03-28T14:27:13.393Z,29.10
2023-03-28T14:32:25.678Z,27.20
2023-03-28T14:37:29.928Z,27.50
2023-03-28T14:42:34.898Z,29.10
2023-03-28T14:47:38.241Z,28.60
2023-03-28T14:52:44.479Z,28.10
2023-03-28T14:57:51.670Z,28.40
2023-03-28T15:02:55.881Z,27.80
2023-03-28T15:08:02.702Z,28.60
2023-03-28T15:13:13.404Z,26.90
2023-03-28T15:18:19.194Z,27.80
2023-03-28T15:23:27.144Z,27.90
2023-03-28T15:28:32.491Z,27.60
2023-03-28T15:33:36.243Z,28.30
2023-03-28T15:38:40.764Z,28.70
2023-03-28T15:43:58.788Z,28.30
2023-03-28T15:49:04.957Z,27.10
2023-03-28T15:54:12.519Z,28.00
2023-03-28T15:59:30.068Z,28.10
2023-03-28T16:04:33.147Z,27.40
2023-03-28T16:09:36.428Z,28.30
2023-03-28T16:14:46.157Z,28.80
2023-03-28T16:19:50.006Z,27.10
2023-03-28T16:24:55.014Z,27.80
2023-03-28T16:29:59.502Z,27.70
2023-03-28T16:35:02.792Z,27.60
2023-03-28T16:40:07.100Z,28.10
2023-03-28T16:45:13.788Z,28.00
2023-03-28T16:50:17.506Z,27.60
2023-03-28T16:55:21.126Z,28.10
2023-03-28T17:00:25.853Z,28.20
2023-03-28T17:05:28.921Z,27.90
2023-03-28T17:10:32.105Z,28.10
2023-03-28T17:15:37.210Z,28.20
2023-03-28T17:20:40.326Z,27.40
2023-03-28T17:25:54.026Z,27.70
2023-03-28T17:30:59.417Z,27.70
2023-03-28T17:36:14.793Z,27.30
2023-03-28T17:41:18.022Z,26.50
2023-03-28T17:46:23.100Z,28.30
2023-03-28T17:51:26.384Z,28.10
2023-03-28T17:56:29.511Z,28.50
2023-03-28T18:01:34.072Z,28.40
2023-03-28T18:06:37.184Z,28.30
2023-03-28T18:11:41.359Z,28.50
2023-03-28T18:16:46.213Z,28.60
2023-03-28T18:21:49.558Z,28.60
2023-03-28T18:26:52.676Z,29.00
2023-03-28T18:31:57.324Z,29.00
2023-03-28T18:37:00.483Z,28.90
2023-03-28T18:42:04.269Z,28.90
2023-03-28T18:47:10.740Z,28.90
2023-03-28T18:52:13.806Z,28.80
2023-03-28T18:57:17.152Z,28.70
2023-03-28T19:02:22.129Z,28.70
2023-03-28T19:07:25.338Z,28.50
2023-03-28T19:12:31.143Z,28.50
2023-03-28T19:17:36.454Z,28.50
2023-03-28T19:22:39.688Z,28.40
2023-03-28T19:27:43.776Z,28.60
2023-03-28T19:32:50.789Z,28.80
2023-03-28T19:37:53.931Z,29.10
2023-03-28T19:42:58.428Z,29.40
2023-03-28T19:48:03.000Z,29.40
2023-03-28T19:53:09.157Z,29.30
2023-03-28T19:58:12.263Z,29.10
2023-03-28T20:03:16.913Z,29.30
2023-03-28T20:08:21.428Z,29.30
2023-03-28T20:13:24.595Z,29.50
2023-03-28T20:18:29.189Z,29.60
2023-03-28T20:23:33.521Z,29.60
2023-03-28T20:28:36.699Z,29.80
2023-03-28T20:33:41.469Z,30.20
2023-03-28T20:38:44.591Z,30.20
2023-03-28T20:43:48.081Z,30.20
2023-03-28T20:48:56.864Z,30.10
2023-03-28T20:54:01.535Z,30.10
2023-03-28T20:59:06.140Z,30.20
2023-03-28T21:04:11.008Z,30.20
2023-03-28T21:09:16.312Z,30.20
2023-03-28T21:14:20.004Z,30.20
2023-03-28T21:19:24.645Z,30.20
2023-03-28T21:24:28.094Z,30.30
2023-03-28T21:29:31.461Z,30.40
2023-03-28T21:34:36.998Z,30.40
2023-03-28T21:39:40.480Z,30.50
2023-03-28T21:44:43.566Z,30.50
2023-03-28T21:49:49.489Z,30.30
2023-03-28T21:54:52.731Z,30.20
2023-03-28T21:59:55.779Z,30.40
2023-03-28T22:05:00.265Z,30.40
2023-03-28T22:10:03.987Z,30.50
2023-03-28T22:15:07.971Z,30.40
2023-03-28T22:20:14.863Z,30.40
2023-03-28T22:25:19.209Z,30.20
2023-03-28T22:30:22.300Z,30.40
2023-03-28T22:35:26.817Z,30.60
2023-03-28T22:40:30.042Z,30.80
2023-03-28T22:45:34.115Z,30.90
2023-03-28T22:50:38.613Z,30.90
2023-03-28T22:55:42.488Z,31.00
2023-03-28T23:00:46.362Z,30.70
2023-03-28T23:05:51.662Z,30.60
2023-03-28T23:10:54.899Z,30.60
2023-03-28T23:15:58.013Z,30.60
2023-03-28T23:21:02.776Z,30.60
2023-03-28T23:26:07.076Z,30.50
2023-03-28T23:31:11.631Z,30.80
2023-03-28T23:36:20.592Z,30.80
2023-03-28T23:41:26.354Z,31.60
2023-03-28T23:46:29.808Z,30.90
2023-03-28T23:51:34.365Z,31.00
2023-03-28T23:56:37.534Z,31.10
